sensor_id;sensor_type;location;lat;lon;timestamp;P1;durP1;ratioP1;P2;durP2;ratioP2
19257;SDS011;9763;48.780;9.212;2023-02-24T00:02:30;5.70;;;4.40;;
19257;SDS011;9763;48.780;9.212;2023-02-24T00:05:54;5.13;;;4.10;;
19257;SDS011;9763;48.780;9.212;2023-02-24T00:09:20;4.97;;;4.43;;
19257;SDS011;9763;48.780;9.212;2023-02-24T00:12:46;6.50;;;5.20;;
19257;SDS011;9763;48.780;9.212;2023-02-24T00:16:11;5.93;;;4.77;;
19257;SDS011;9763;48.780;9.212;2023-02-24T00:19:38;5.10;;;3.90;;
19257;SDS011;9763;48.780;9.212;2023-02-24T00:23:03;4.70;;;3.83;;
19257;SDS011;9763;48.780;9.212;2023-02-24T00:26:27;7.00;;;5.90;;
19257;SDS011;9763;48.780;9.212;2023-02-24T00:29:52;5.80;;;5.07;;
19257;SDS011;9763;48.780;9.212;2023-02-24T00:33:16;6.27;;;5.53;;
19257;SDS011;9763;48.780;9.212;2023-02-24T00:36:45;8.03;;;6.47;;
19257;SDS011;9763;48.780;9.212;2023-02-24T00:40:11;8.70;;;6.17;;
19257;SDS011;9763;48.780;9.212;2023-02-24T00:43:36;6.20;;;5.60;;
19257;SDS011;9763;48.780;9.212;2023-02-24T00:47:00;6.30;;;5.43;;
19257;SDS011;9763;48.780;9.212;2023-02-24T00:50:27;10.57;;;7.47;;
19257;SDS011;9763;48.780;9.212;2023-02-24T00:53:53;7.57;;;6.50;;
19257;SDS011;9763;48.780;9.212;2023-02-24T00:57:20;7.03;;;5.70;;
19257;SDS011;9763;48.780;9.212;2023-02-24T01:00:44;7.47;;;5.90;;
19257;SDS011;9763;48.780;9.212;2023-02-24T01:04:10;7.83;;;4.87;;
19257;SDS011;9763;48.780;9.212;2023-02-24T01:07:38;10.50;;;7.50;;
19257;SDS011;9763;48.780;9.212;2023-02-24T01:11:04;9.07;;;6.43;;
19257;SDS011;9763;48.780;9.212;2023-02-24T01:14:47;6.10;;;5.10;;
19257;SDS011;9763;48.780;9.212;2023-02-24T01:18:13;10.33;;;7.90;;
19257;SDS011;9763;48.780;9.212;2023-02-24T01:21:37;6.53;;;5.70;;
19257;SDS011;9763;48.780;9.212;2023-02-24T01:25:01;11.50;;;9.20;;
19257;SDS011;9763;48.780;9.212;2023-02-24T01:28:27;9.30;;;7.67;;
19257;SDS011;9763;48.780;9.212;2023-02-24T01:31:52;8.60;;;7.50;;
19257;SDS011;9763;48.780;9.212;2023-02-24T01:35:19;8.07;;;7.17;;
19257;SDS011;9763;48.780;9.212;2023-02-24T01:38:43;10.70;;;7.40;;
19257;SDS011;9763;48.780;9.212;2023-02-24T01:42:09;7.93;;;6.03;;
19257;SDS011;9763;48.780;9.212;2023-02-24T01:45:42;7.97;;;6.87;;
19257;SDS011;9763;48.780;9.212;2023-02-24T01:49:06;6.40;;;5.60;;
19257;SDS011;9763;48.780;9.212;2023-02-24T01:52:35;7.13;;;6.00;;
19257;SDS011;9763;48.780;9.212;2023-02-24T01:56:00;4.80;;;4.40;;
19257;SDS011;9763;48.780;9.212;2023-02-24T01:59:28;6.03;;;4.50;;
19257;SDS011;9763;48.780;9.212;2023-02-24T02:02:54;6.90;;;5.43;;
19257;SDS011;9763;48.780;9.212;2023-02-24T02:06:22;7.63;;;5.40;;
19257;SDS011;9763;48.780;9.212;2023-02-24T02:09:46;6.23;;;5.60;;
19257;SDS011;9763;48.780;9.212;2023-02-24T02:13:14;9.30;;;6.60;;
19257;SDS011;9763;48.780;9.212;2023-02-24T02:16:45;8.07;;;6.63;;
19257;SDS011;9763;48.780;9.212;2023-02-24T02:20:27;7.23;;;5.47;;
19257;SDS011;9763;48.780;9.212;2023-02-24T02:24:21;6.67;;;5.17;;
19257;SDS011;9763;48.780;9.212;2023-02-24T02:28:18;10.60;;;7.33;;
19257;SDS011;9763;48.780;9.212;2023-02-24T02:32:07;8.70;;;6.73;;
19257;SDS011;9763;48.780;9.212;2023-02-24T02:35:55;6.53;;;5.10;;
19257;SDS011;9763;48.780;9.212;2023-02-24T02:39:30;7.53;;;6.10;;
19257;SDS011;9763;48.780;9.212;2023-02-24T02:43:08;6.93;;;5.60;;
19257;SDS011;9763;48.780;9.212;2023-02-24T02:46:41;5.63;;;5.03;;
19257;SDS011;9763;48.780;9.212;2023-02-24T02:50:11;5.90;;;4.70;;
19257;SDS011;9763;48.780;9.212;2023-02-24T02:53:44;5.47;;;4.00;;
19257;SDS011;9763;48.780;9.212;2023-02-24T02:57:15;6.43;;;5.70;;
19257;SDS011;9763;48.780;9.212;2023-02-24T03:00:46;7.40;;;5.90;;
19257;SDS011;9763;48.780;9.212;2023-02-24T03:04:22;4.73;;;4.23;;
19257;SDS011;9763;48.780;9.212;2023-02-24T03:07:50;4.80;;;4.30;;
19257;SDS011;9763;48.780;9.212;2023-02-24T03:11:19;4.77;;;4.13;;
19257;SDS011;9763;48.780;9.212;2023-02-24T03:14:44;5.97;;;5.37;;
19257;SDS011;9763;48.780;9.212;2023-02-24T03:18:13;5.30;;;4.73;;
19257;SDS011;9763;48.780;9.212;2023-02-24T03:21:42;7.97;;;6.10;;
19257;SDS011;9763;48.780;9.212;2023-02-24T03:25:12;7.20;;;6.50;;
19257;SDS011;9763;48.780;9.212;2023-02-24T03:28:40;7.13;;;5.43;;
19257;SDS011;9763;48.780;9.212;2023-02-24T03:32:16;7.40;;;6.07;;
19257;SDS011;9763;48.780;9.212;2023-02-24T03:35:45;7.60;;;6.60;;
19257;SDS011;9763;48.780;9.212;2023-02-24T03:39:11;7.30;;;5.67;;
19257;SDS011;9763;48.780;9.212;2023-02-24T03:42:46;6.40;;;5.80;;
19257;SDS011;9763;48.780;9.212;2023-02-24T03:46:14;8.07;;;6.67;;
19257;SDS011;9763;48.780;9.212;2023-02-24T03:49:39;8.97;;;7.27;;
19257;SDS011;9763;48.780;9.212;2023-02-24T03:53:10;7.90;;;6.13;;
19257;SDS011;9763;48.780;9.212;2023-02-24T03:56:45;8.20;;;6.30;;
19257;SDS011;9763;48.780;9.212;2023-02-24T04:00:20;7.90;;;5.40;;
19257;SDS011;9763;48.780;9.212;2023-02-24T04:03:59;10.07;;;8.10;;
19257;SDS011;9763;48.780;9.212;2023-02-24T04:07:39;8.60;;;6.77;;
19257;SDS011;9763;48.780;9.212;2023-02-24T04:11:15;9.20;;;7.07;;
19257;SDS011;9763;48.780;9.212;2023-02-24T04:14:49;8.60;;;7.10;;
19257;SDS011;9763;48.780;9.212;2023-02-24T04:18:19;9.27;;;7.30;;
19257;SDS011;9763;48.780;9.212;2023-02-24T04:21:52;9.73;;;7.93;;
19257;SDS011;9763;48.780;9.212;2023-02-24T04:25:20;14.80;;;12.27;;
19257;SDS011;9763;48.780;9.212;2023-02-24T04:28:48;12.97;;;10.43;;
19257;SDS011;9763;48.780;9.212;2023-02-24T04:32:12;16.77;;;12.20;;
19257;SDS011;9763;48.780;9.212;2023-02-24T04:35:43;13.20;;;10.13;;
19257;SDS011;9763;48.780;9.212;2023-02-24T04:39:09;13.53;;;11.23;;
19257;SDS011;9763;48.780;9.212;2023-02-24T04:42:34;15.90;;;11.27;;
19257;SDS011;9763;48.780;9.212;2023-02-24T04:46:02;15.20;;;10.67;;
19257;SDS011;9763;48.780;9.212;2023-02-24T04:49:28;12.70;;;10.30;;
19257;SDS011;9763;48.780;9.212;2023-02-24T04:52:53;17.53;;;11.40;;
19257;SDS011;9763;48.780;9.212;2023-02-24T04:56:20;16.10;;;10.40;;
19257;SDS011;9763;48.780;9.212;2023-02-24T04:59:43;10.07;;;8.97;;
19257;SDS011;9763;48.780;9.212;2023-02-24T05:03:09;13.20;;;9.60;;
19257;SDS011;9763;48.780;9.212;2023-02-24T05:06:33;9.20;;;7.60;;
19257;SDS011;9763;48.780;9.212;2023-02-24T05:10:01;11.33;;;8.00;;
19257;SDS011;9763;48.780;9.212;2023-02-24T05:13:28;12.43;;;9.07;;
19257;SDS011;9763;48.780;9.212;2023-02-24T05:16:53;12.50;;;10.40;;
19257;SDS011;9763;48.780;9.212;2023-02-24T05:20:21;12.33;;;9.23;;
19257;SDS011;9763;48.780;9.212;2023-02-24T05:24:03;12.20;;;9.80;;
19257;SDS011;9763;48.780;9.212;2023-02-24T05:27:28;12.80;;;9.90;;
19257;SDS011;9763;48.780;9.212;2023-02-24T05:30:53;14.10;;;10.10;;
19257;SDS011;9763;48.780;9.212;2023-02-24T05:34:20;15.30;;;10.43;;
19257;SDS011;9763;48.780;9.212;2023-02-24T05:37:44;13.33;;;9.73;;
19257;SDS011;9763;48.780;9.212;2023-02-24T05:41:09;13.13;;;8.83;;
19257;SDS011;9763;48.780;9.212;2023-02-24T05:44:38;13.10;;;9.37;;
19257;SDS011;9763;48.780;9.212;2023-02-24T05:48:04;11.33;;;9.40;;
19257;SDS011;9763;48.780;9.212;2023-02-24T05:51:30;12.80;;;8.87;;
19257;SDS011;9763;48.780;9.212;2023-02-24T05:54:56;11.17;;;8.13;;
19257;SDS011;9763;48.780;9.212;2023-02-24T05:58:23;11.23;;;8.03;;
19257;SDS011;9763;48.780;9.212;2023-02-24T06:01:49;11.57;;;7.93;;
19257;SDS011;9763;48.780;9.212;2023-02-24T06:05:17;10.53;;;8.07;;
19257;SDS011;9763;48.780;9.212;2023-02-24T06:08:47;9.60;;;6.87;;
19257;SDS011;9763;48.780;9.212;2023-02-24T06:12:11;12.00;;;8.77;;
19257;SDS011;9763;48.780;9.212;2023-02-24T06:15:36;13.93;;;8.73;;
19257;SDS011;9763;48.780;9.212;2023-02-24T06:19:02;11.90;;;8.20;;
19257;SDS011;9763;48.780;9.212;2023-02-24T06:22:29;9.90;;;8.13;;
19257;SDS011;9763;48.780;9.212;2023-02-24T06:25:54;13.33;;;9.43;;
19257;SDS011;9763;48.780;9.212;2023-02-24T06:29:23;12.90;;;8.47;;
19257;SDS011;9763;48.780;9.212;2023-02-24T06:32:50;17.03;;;11.13;;
19257;SDS011;9763;48.780;9.212;2023-02-24T06:36:15;11.00;;;8.30;;
19257;SDS011;9763;48.780;9.212;2023-02-24T06:39:40;11.00;;;8.10;;
19257;SDS011;9763;48.780;9.212;2023-02-24T06:43:04;11.50;;;7.93;;
19257;SDS011;9763;48.780;9.212;2023-02-24T06:46:30;11.40;;;7.70;;
19257;SDS011;9763;48.780;9.212;2023-02-24T06:49:54;9.80;;;7.70;;
19257;SDS011;9763;48.780;9.212;2023-02-24T06:53:18;14.57;;;11.13;;
19257;SDS011;9763;48.780;9.212;2023-02-24T06:56:43;11.50;;;9.30;;
19257;SDS011;9763;48.780;9.212;2023-02-24T07:00:08;15.90;;;8.83;;
19257;SDS011;9763;48.780;9.212;2023-02-24T07:03:38;14.53;;;9.23;;
19257;SDS011;9763;48.780;9.212;2023-02-24T07:07:08;11.40;;;7.73;;
19257;SDS011;9763;48.780;9.212;2023-02-24T07:10:34;12.30;;;8.73;;
19257;SDS011;9763;48.780;9.212;2023-02-24T07:14:01;11.07;;;8.50;;
19257;SDS011;9763;48.780;9.212;2023-02-24T07:17:26;11.73;;;7.80;;
19257;SDS011;9763;48.780;9.212;2023-02-24T07:20:51;11.70;;;8.20;;
19257;SDS011;9763;48.780;9.212;2023-02-24T07:24:16;11.27;;;8.20;;
19257;SDS011;9763;48.780;9.212;2023-02-24T07:27:45;11.30;;;7.53;;
19257;SDS011;9763;48.780;9.212;2023-02-24T07:31:11;12.67;;;7.33;;
19257;SDS011;9763;48.780;9.212;2023-02-24T07:34:37;10.07;;;8.13;;
19257;SDS011;9763;48.780;9.212;2023-02-24T07:38:02;12.00;;;7.90;;
19257;SDS011;9763;48.780;9.212;2023-02-24T07:41:26;14.50;;;9.70;;
19257;SDS011;9763;48.780;9.212;2023-02-24T07:44:52;14.77;;;9.40;;
19257;SDS011;9763;48.780;9.212;2023-02-24T07:48:20;16.03;;;10.73;;
19257;SDS011;9763;48.780;9.212;2023-02-24T07:51:44;10.03;;;7.30;;
19257;SDS011;9763;48.780;9.212;2023-02-24T07:55:13;12.77;;;8.53;;
19257;SDS011;9763;48.780;9.212;2023-02-24T07:58:37;12.33;;;8.60;;
19257;SDS011;9763;48.780;9.212;2023-02-24T08:02:02;11.60;;;8.50;;
19257;SDS011;9763;48.780;9.212;2023-02-24T08:05:29;13.20;;;9.00;;
19257;SDS011;9763;48.780;9.212;2023-02-24T08:08:55;14.90;;;8.63;;
19257;SDS011;9763;48.780;9.212;2023-02-24T08:12:20;14.07;;;8.90;;
19257;SDS011;9763;48.780;9.212;2023-02-24T08:16:09;13.90;;;9.03;;
19257;SDS011;9763;48.780;9.212;2023-02-24T08:19:33;20.90;;;11.63;;
19257;SDS011;9763;48.780;9.212;2023-02-24T08:23:02;21.30;;;11.80;;
19257;SDS011;9763;48.780;9.212;2023-02-24T08:26:29;15.23;;;10.50;;
19257;SDS011;9763;48.780;9.212;2023-02-24T08:29:53;18.03;;;11.47;;
19257;SDS011;9763;48.780;9.212;2023-02-24T08:33:22;15.60;;;9.73;;
19257;SDS011;9763;48.780;9.212;2023-02-24T08:36:50;14.30;;;9.47;;
19257;SDS011;9763;48.780;9.212;2023-02-24T08:40:18;16.83;;;10.10;;
19257;SDS011;9763;48.780;9.212;2023-02-24T08:43:58;17.00;;;10.13;;
19257;SDS011;9763;48.780;9.212;2023-02-24T08:47:23;13.87;;;9.80;;
19257;SDS011;9763;48.780;9.212;2023-02-24T08:50:52;12.90;;;9.00;;
19257;SDS011;9763;48.780;9.212;2023-02-24T08:54:18;11.27;;;7.67;;
19257;SDS011;9763;48.780;9.212;2023-02-24T08:57:49;13.70;;;9.20;;
19257;SDS011;9763;48.780;9.212;2023-02-24T09:01:17;11.60;;;9.07;;
19257;SDS011;9763;48.780;9.212;2023-02-24T09:04:46;15.03;;;9.17;;
19257;SDS011;9763;48.780;9.212;2023-02-24T09:08:13;11.17;;;7.47;;
19257;SDS011;9763;48.780;9.212;2023-02-24T09:11:37;11.67;;;8.60;;
19257;SDS011;9763;48.780;9.212;2023-02-24T09:15:06;13.87;;;8.60;;
19257;SDS011;9763;48.780;9.212;2023-02-24T09:18:35;13.57;;;8.37;;
19257;SDS011;9763;48.780;9.212;2023-02-24T09:22:00;10.87;;;7.67;;
19257;SDS011;9763;48.780;9.212;2023-02-24T09:25:42;12.40;;;7.73;;
19257;SDS011;9763;48.780;9.212;2023-02-24T09:29:09;10.30;;;7.97;;
19257;SDS011;9763;48.780;9.212;2023-02-24T09:32:55;8.83;;;7.40;;
19257;SDS011;9763;48.780;9.212;2023-02-24T09:36:22;14.03;;;7.40;;
19257;SDS011;9763;48.780;9.212;2023-02-24T09:39:51;10.57;;;7.30;;
19257;SDS011;9763;48.780;9.212;2023-02-24T09:43:35;9.77;;;7.60;;
19257;SDS011;9763;48.780;9.212;2023-02-24T09:47:08;9.83;;;7.33;;
19257;SDS011;9763;48.780;9.212;2023-02-24T09:50:38;9.50;;;7.17;;
19257;SDS011;9763;48.780;9.212;2023-02-24T09:54:27;10.60;;;7.33;;
19257;SDS011;9763;48.780;9.212;2023-02-24T09:57:59;10.50;;;7.30;;
19257;SDS011;9763;48.780;9.212;2023-02-24T10:02:01;8.80;;;6.27;;
19257;SDS011;9763;48.780;9.212;2023-02-24T10:05:50;8.57;;;6.50;;
19257;SDS011;9763;48.780;9.212;2023-02-24T10:09:21;9.00;;;6.53;;
19257;SDS011;9763;48.780;9.212;2023-02-24T10:12:56;8.00;;;4.80;;
19257;SDS011;9763;48.780;9.212;2023-02-24T10:16:38;8.47;;;5.77;;
19257;SDS011;9763;48.780;9.212;2023-02-24T10:20:10;7.70;;;5.57;;
19257;SDS011;9763;48.780;9.212;2023-02-24T10:23:56;7.00;;;5.73;;
19257;SDS011;9763;48.780;9.212;2023-02-24T10:27:31;7.03;;;5.27;;
19257;SDS011;9763;48.780;9.212;2023-02-24T10:31:07;7.63;;;5.23;;
19257;SDS011;9763;48.780;9.212;2023-02-24T10:34:46;6.60;;;4.80;;
19257;SDS011;9763;48.780;9.212;2023-02-24T10:38:10;8.40;;;6.10;;
19257;SDS011;9763;48.780;9.212;2023-02-24T10:41:46;11.27;;;6.60;;
19257;SDS011;9763;48.780;9.212;2023-02-24T10:45:20;10.40;;;7.00;;
19257;SDS011;9763;48.780;9.212;2023-02-24T10:48:49;8.80;;;6.03;;
19257;SDS011;9763;48.780;9.212;2023-02-24T10:52:22;9.23;;;6.73;;
19257;SDS011;9763;48.780;9.212;2023-02-24T10:56:12;7.80;;;6.23;;
19257;SDS011;9763;48.780;9.212;2023-02-24T10:59:50;9.07;;;6.13;;
19257;SDS011;9763;48.780;9.212;2023-02-24T11:03:33;12.90;;;8.20;;
19257;SDS011;9763;48.780;9.212;2023-02-24T11:07:03;11.23;;;8.37;;
19257;SDS011;9763;48.780;9.212;2023-02-24T11:10:35;11.10;;;7.67;;
19257;SDS011;9763;48.780;9.212;2023-02-24T11:14:14;13.90;;;8.17;;
19257;SDS011;9763;48.780;9.212;2023-02-24T11:18:04;14.53;;;9.20;;
19257;SDS011;9763;48.780;9.212;2023-02-24T11:21:31;16.00;;;9.73;;
19257;SDS011;9763;48.780;9.212;2023-02-24T11:24:55;17.80;;;10.77;;
19257;SDS011;9763;48.780;9.212;2023-02-24T11:28:32;17.73;;;10.67;;
19257;SDS011;9763;48.780;9.212;2023-02-24T11:32:13;15.90;;;10.43;;
19257;SDS011;9763;48.780;9.212;2023-02-24T11:35:56;13.53;;;8.93;;
19257;SDS011;9763;48.780;9.212;2023-02-24T11:39:34;12.90;;;8.90;;
19257;SDS011;9763;48.780;9.212;2023-02-24T11:43:09;11.03;;;8.20;;
19257;SDS011;9763;48.780;9.212;2023-02-24T11:46:40;10.07;;;6.77;;
19257;SDS011;9763;48.780;9.212;2023-02-24T11:50:24;10.47;;;7.33;;
19257;SDS011;9763;48.780;9.212;2023-02-24T11:54:02;12.93;;;8.50;;
19257;SDS011;9763;48.780;9.212;2023-02-24T11:57:34;12.20;;;7.53;;
19257;SDS011;9763;48.780;9.212;2023-02-24T12:01:08;10.00;;;7.13;;
19257;SDS011;9763;48.780;9.212;2023-02-24T12:04:39;11.77;;;6.93;;
19257;SDS011;9763;48.780;9.212;2023-02-24T12:08:16;9.90;;;6.40;;
19257;SDS011;9763;48.780;9.212;2023-02-24T12:11:53;9.07;;;6.20;;
19257;SDS011;9763;48.780;9.212;2023-02-24T12:15:21;9.30;;;7.00;;
19257;SDS011;9763;48.780;9.212;2023-02-24T12:18:51;12.37;;;6.47;;
19257;SDS011;9763;48.780;9.212;2023-02-24T12:22:21;11.30;;;8.30;;
19257;SDS011;9763;48.780;9.212;2023-02-24T12:25:54;9.80;;;5.67;;
19257;SDS011;9763;48.780;9.212;2023-02-24T12:29:36;8.57;;;5.53;;
19257;SDS011;9763;48.780;9.212;2023-02-24T12:33:19;10.63;;;5.97;;
19257;SDS011;9763;48.780;9.212;2023-02-24T12:37:05;10.63;;;6.10;;
19257;SDS011;9763;48.780;9.212;2023-02-24T12:40:52;8.77;;;5.57;;
19257;SDS011;9763;48.780;9.212;2023-02-24T12:44:40;5.20;;;4.13;;
19257;SDS011;9763;48.780;9.212;2023-02-24T12:48:18;8.63;;;6.23;;
19257;SDS011;9763;48.780;9.212;2023-02-24T12:52:30;7.37;;;4.87;;
19257;SDS011;9763;48.780;9.212;2023-02-24T12:56:04;6.00;;;4.73;;
19257;SDS011;9763;48.780;9.212;2023-02-24T12:59:36;5.80;;;4.20;;
19257;SDS011;9763;48.780;9.212;2023-02-24T13:03:05;6.10;;;4.13;;
19257;SDS011;9763;48.780;9.212;2023-02-24T13:06:47;6.50;;;4.60;;
19257;SDS011;9763;48.780;9.212;2023-02-24T13:10:24;8.37;;;4.27;;
19257;SDS011;9763;48.780;9.212;2023-02-24T13:13:55;7.73;;;4.27;;
19257;SDS011;9763;48.780;9.212;2023-02-24T13:17:27;5.97;;;4.07;;
19257;SDS011;9763;48.780;9.212;2023-02-24T13:20:59;4.60;;;3.53;;
19257;SDS011;9763;48.780;9.212;2023-02-24T13:24:26;4.90;;;2.97;;
19257;SDS011;9763;48.780;9.212;2023-02-24T13:27:54;6.67;;;3.67;;
19257;SDS011;9763;48.780;9.212;2023-02-24T13:31:21;4.20;;;3.00;;
19257;SDS011;9763;48.780;9.212;2023-02-24T13:34:48;4.23;;;3.00;;
19257;SDS011;9763;48.780;9.212;2023-02-24T13:38:23;4.13;;;3.10;;
19257;SDS011;9763;48.780;9.212;2023-02-24T13:42:01;8.50;;;3.50;;
19257;SDS011;9763;48.780;9.212;2023-02-24T13:45:28;6.53;;;4.30;;
19257;SDS011;9763;48.780;9.212;2023-02-24T13:48:55;8.60;;;5.20;;
19257;SDS011;9763;48.780;9.212;2023-02-24T13:52:44;6.40;;;4.73;;
19257;SDS011;9763;48.780;9.212;2023-02-24T13:56:23;4.50;;;3.73;;
19257;SDS011;9763;48.780;9.212;2023-02-24T13:59:58;7.27;;;4.33;;
19257;SDS011;9763;48.780;9.212;2023-02-24T14:03:35;6.43;;;3.70;;
19257;SDS011;9763;48.780;9.212;2023-02-24T14:07:02;9.50;;;6.47;;
19257;SDS011;9763;48.780;9.212;2023-02-24T14:10:32;11.07;;;5.70;;
19257;SDS011;9763;48.780;9.212;2023-02-24T14:13:58;9.30;;;5.53;;
19257;SDS011;9763;48.780;9.212;2023-02-24T14:17:23;8.90;;;5.60;;
19257;SDS011;9763;48.780;9.212;2023-02-24T14:20:50;11.70;;;7.03;;
19257;SDS011;9763;48.780;9.212;2023-02-24T14:24:14;16.67;;;9.47;;
19257;SDS011;9763;48.780;9.212;2023-02-24T14:27:41;12.13;;;6.63;;
19257;SDS011;9763;48.780;9.212;2023-02-24T14:31:06;10.63;;;5.80;;
19257;SDS011;9763;48.780;9.212;2023-02-24T14:34:32;9.93;;;6.67;;
19257;SDS011;9763;48.780;9.212;2023-02-24T14:37:56;10.60;;;6.07;;
19257;SDS011;9763;48.780;9.212;2023-02-24T14:41:23;8.03;;;5.90;;
19257;SDS011;9763;48.780;9.212;2023-02-24T14:44:50;7.20;;;5.00;;
19257;SDS011;9763;48.780;9.212;2023-02-24T14:48:19;6.17;;;4.43;;
19257;SDS011;9763;48.780;9.212;2023-02-24T14:51:47;6.53;;;4.77;;
19257;SDS011;9763;48.780;9.212;2023-02-24T14:55:17;10.00;;;6.20;;
19257;SDS011;9763;48.780;9.212;2023-02-24T14:58:46;13.50;;;4.90;;
19257;SDS011;9763;48.780;9.212;2023-02-24T15:02:17;5.43;;;4.40;;
19257;SDS011;9763;48.780;9.212;2023-02-24T15:05:47;7.40;;;5.43;;
19257;SDS011;9763;48.780;9.212;2023-02-24T15:09:14;8.30;;;4.57;;
19257;SDS011;9763;48.780;9.212;2023-02-24T15:12:42;9.30;;;5.23;;
19257;SDS011;9763;48.780;9.212;2023-02-24T15:16:13;6.57;;;4.50;;
19257;SDS011;9763;48.780;9.212;2023-02-24T15:19:43;7.57;;;5.03;;
19257;SDS011;9763;48.780;9.212;2023-02-24T15:23:23;6.83;;;4.27;;
19257;SDS011;9763;48.780;9.212;2023-02-24T15:26:50;7.13;;;5.20;;
19257;SDS011;9763;48.780;9.212;2023-02-24T15:30:24;7.63;;;4.40;;
19257;SDS011;9763;48.780;9.212;2023-02-24T15:33:52;7.13;;;4.50;;
19257;SDS011;9763;48.780;9.212;2023-02-24T15:37:21;6.97;;;4.90;;
19257;SDS011;9763;48.780;9.212;2023-02-24T15:40:49;8.20;;;5.87;;
19257;SDS011;9763;48.780;9.212;2023-02-24T15:44:25;8.03;;;6.17;;
19257;SDS011;9763;48.780;9.212;2023-02-24T15:47:51;4.70;;;3.97;;
19257;SDS011;9763;48.780;9.212;2023-02-24T15:51:18;6.40;;;4.20;;
19257;SDS011;9763;48.780;9.212;2023-02-24T15:54:49;6.37;;;4.37;;
19257;SDS011;9763;48.780;9.212;2023-02-24T15:58:14;6.23;;;5.03;;
19257;SDS011;9763;48.780;9.212;2023-02-24T16:01:40;6.77;;;4.40;;
19257;SDS011;9763;48.780;9.212;2023-02-24T16:05:04;8.17;;;4.27;;
19257;SDS011;9763;48.780;9.212;2023-02-24T16:08:29;6.00;;;5.00;;
19257;SDS011;9763;48.780;9.212;2023-02-24T16:11:55;8.63;;;5.20;;
19257;SDS011;9763;48.780;9.212;2023-02-24T16:15:22;5.83;;;4.73;;
19257;SDS011;9763;48.780;9.212;2023-02-24T16:18:48;5.23;;;4.07;;
19257;SDS011;9763;48.780;9.212;2023-02-24T16:22:12;6.83;;;4.27;;
19257;SDS011;9763;48.780;9.212;2023-02-24T16:25:37;5.90;;;3.93;;
19257;SDS011;9763;48.780;9.212;2023-02-24T16:29:08;4.70;;;3.70;;
19257;SDS011;9763;48.780;9.212;2023-02-24T16:32:35;11.50;;;4.90;;
19257;SDS011;9763;48.780;9.212;2023-02-24T16:35:59;8.00;;;4.50;;
19257;SDS011;9763;48.780;9.212;2023-02-24T16:39:24;6.60;;;4.10;;
19257;SDS011;9763;48.780;9.212;2023-02-24T16:42:48;5.20;;;4.50;;
19257;SDS011;9763;48.780;9.212;2023-02-24T16:46:14;5.37;;;4.00;;
19257;SDS011;9763;48.780;9.212;2023-02-24T16:49:40;6.73;;;4.60;;
19257;SDS011;9763;48.780;9.212;2023-02-24T16:53:04;8.87;;;4.80;;
19257;SDS011;9763;48.780;9.212;2023-02-24T16:56:29;8.50;;;4.80;;
19257;SDS011;9763;48.780;9.212;2023-02-24T16:59:53;6.27;;;4.80;;
19257;SDS011;9763;48.780;9.212;2023-02-24T17:03:19;7.20;;;4.47;;
19257;SDS011;9763;48.780;9.212;2023-02-24T17:06:47;4.87;;;3.70;;
19257;SDS011;9763;48.780;9.212;2023-02-24T17:10:11;7.90;;;3.50;;
19257;SDS011;9763;48.780;9.212;2023-02-24T17:13:34;6.40;;;5.10;;
19257;SDS011;9763;48.780;9.212;2023-02-24T17:16:58;5.40;;;3.70;;
19257;SDS011;9763;48.780;9.212;2023-02-24T17:20:24;6.23;;;4.27;;
19257;SDS011;9763;48.780;9.212;2023-02-24T17:23:48;6.40;;;4.57;;
19257;SDS011;9763;48.780;9.212;2023-02-24T17:27:13;6.60;;;4.17;;
19257;SDS011;9763;48.780;9.212;2023-02-24T17:30:37;10.68;;;7.50;;
19257;SDS011;9763;48.780;9.212;2023-02-24T17:34:02;8.90;;;6.03;;
19257;SDS011;9763;48.780;9.212;2023-02-24T17:37:28;5.43;;;4.93;;
19257;SDS011;9763;48.780;9.212;2023-02-24T17:40:52;7.43;;;4.73;;
19257;SDS011;9763;48.780;9.212;2023-02-24T17:44:16;7.30;;;4.70;;
19257;SDS011;9763;48.780;9.212;2023-02-24T17:47:40;7.30;;;4.43;;
19257;SDS011;9763;48.780;9.212;2023-02-24T17:51:04;5.33;;;3.77;;
19257;SDS011;9763;48.780;9.212;2023-02-24T17:54:29;4.60;;;3.67;;
19257;SDS011;9763;48.780;9.212;2023-02-24T17:57:53;4.03;;;2.77;;
19257;SDS011;9763;48.780;9.212;2023-02-24T18:01:17;5.00;;;3.60;;
19257;SDS011;9763;48.780;9.212;2023-02-24T18:04:41;3.50;;;3.20;;
19257;SDS011;9763;48.780;9.212;2023-02-24T18:08:05;5.47;;;4.27;;
19257;SDS011;9763;48.780;9.212;2023-02-24T18:11:30;5.63;;;3.53;;
19257;SDS011;9763;48.780;9.212;2023-02-24T18:14:55;5.40;;;3.23;;
19257;SDS011;9763;48.780;9.212;2023-02-24T18:18:29;5.00;;;3.27;;
19257;SDS011;9763;48.780;9.212;2023-02-24T18:21:52;3.90;;;3.27;;
19257;SDS011;9763;48.780;9.212;2023-02-24T18:25:16;3.27;;;2.43;;
19257;SDS011;9763;48.780;9.212;2023-02-24T18:28:41;3.73;;;2.73;;
19257;SDS011;9763;48.780;9.212;2023-02-24T18:32:05;3.13;;;2.70;;
19257;SDS011;9763;48.780;9.212;2023-02-24T18:35:29;3.60;;;2.50;;
19257;SDS011;9763;48.780;9.212;2023-02-24T18:38:55;2.67;;;2.47;;
19257;SDS011;9763;48.780;9.212;2023-02-24T18:42:19;2.30;;;2.10;;
19257;SDS011;9763;48.780;9.212;2023-02-24T18:45:44;5.57;;;2.70;;
19257;SDS011;9763;48.780;9.212;2023-02-24T18:49:08;3.00;;;2.33;;
19257;SDS011;9763;48.780;9.212;2023-02-24T18:52:32;4.23;;;2.23;;
19257;SDS011;9763;48.780;9.212;2023-02-24T18:55:59;2.97;;;2.20;;
19257;SDS011;9763;48.780;9.212;2023-02-24T18:59:24;3.77;;;2.80;;
19257;SDS011;9763;48.780;9.212;2023-02-24T19:02:49;3.03;;;2.67;;
19257;SDS011;9763;48.780;9.212;2023-02-24T19:06:13;5.20;;;3.40;;
19257;SDS011;9763;48.780;9.212;2023-02-24T19:09:39;6.70;;;3.90;;
19257;SDS011;9763;48.780;9.212;2023-02-24T19:13:04;7.23;;;5.00;;
19257;SDS011;9763;48.780;9.212;2023-02-24T19:16:29;11.63;;;5.00;;
19257;SDS011;9763;48.780;9.212;2023-02-24T19:19:55;6.60;;;5.00;;
19257;SDS011;9763;48.780;9.212;2023-02-24T19:23:18;8.40;;;5.67;;
19257;SDS011;9763;48.780;9.212;2023-02-24T19:26:42;9.27;;;6.67;;
19257;SDS011;9763;48.780;9.212;2023-02-24T19:30:08;12.70;;;7.73;;
19257;SDS011;9763;48.780;9.212;2023-02-24T19:33:33;9.03;;;6.67;;
19257;SDS011;9763;48.780;9.212;2023-02-24T19:36:58;12.33;;;7.40;;
19257;SDS011;9763;48.780;9.212;2023-02-24T19:40:22;11.60;;;8.00;;
19257;SDS011;9763;48.780;9.212;2023-02-24T19:43:46;10.20;;;6.80;;
19257;SDS011;9763;48.780;9.212;2023-02-24T19:47:09;11.50;;;8.73;;
19257;SDS011;9763;48.780;9.212;2023-02-24T19:50:33;13.30;;;9.10;;
19257;SDS011;9763;48.780;9.212;2023-02-24T19:53:58;18.23;;;9.57;;
19257;SDS011;9763;48.780;9.212;2023-02-24T19:57:24;15.57;;;8.73;;
19257;SDS011;9763;48.780;9.212;2023-02-24T20:00:48;13.60;;;8.73;;
19257;SDS011;9763;48.780;9.212;2023-02-24T20:04:11;11.23;;;8.90;;
19257;SDS011;9763;48.780;9.212;2023-02-24T20:07:36;12.80;;;8.00;;
19257;SDS011;9763;48.780;9.212;2023-02-24T20:11:02;12.30;;;7.77;;
19257;SDS011;9763;48.780;9.212;2023-02-24T20:14:28;14.37;;;8.60;;
19257;SDS011;9763;48.780;9.212;2023-02-24T20:17:52;13.40;;;9.67;;
19257;SDS011;9763;48.780;9.212;2023-02-24T20:21:15;13.47;;;9.80;;
19257;SDS011;9763;48.780;9.212;2023-02-24T20:24:39;15.00;;;9.33;;
19257;SDS011;9763;48.780;9.212;2023-02-24T20:28:04;12.33;;;8.13;;
19257;SDS011;9763;48.780;9.212;2023-02-24T20:31:28;12.73;;;8.20;;
19257;SDS011;9763;48.780;9.212;2023-02-24T20:34:53;13.27;;;9.00;;
19257;SDS011;9763;48.780;9.212;2023-02-24T20:38:16;15.23;;;10.20;;
19257;SDS011;9763;48.780;9.212;2023-02-24T20:41:40;14.83;;;8.83;;
19257;SDS011;9763;48.780;9.212;2023-02-24T20:45:07;13.50;;;9.63;;
19257;SDS011;9763;48.780;9.212;2023-02-24T20:48:33;13.87;;;8.90;;
19257;SDS011;9763;48.780;9.212;2023-02-24T20:51:57;14.27;;;10.00;;
19257;SDS011;9763;48.780;9.212;2023-02-24T20:55:21;13.93;;;9.53;;
19257;SDS011;9763;48.780;9.212;2023-02-24T20:58:44;16.57;;;10.80;;
19257;SDS011;9763;48.780;9.212;2023-02-24T21:02:10;14.30;;;9.83;;
19257;SDS011;9763;48.780;9.212;2023-02-24T21:05:34;13.70;;;9.37;;
19257;SDS011;9763;48.780;9.212;2023-02-24T21:08:57;15.87;;;9.37;;
19257;SDS011;9763;48.780;9.212;2023-02-24T21:12:21;12.40;;;8.20;;